New Effington, SD (57255)

10:44 PM CST on December 19, 2014 (GMT -0600)
Wheaton Municipal | Change Station
CLOSE
Current Station
Airport
Location: Wheaton NDB,
Elevation: 1024 ft
Nearby Weather Stations

Elev 1024 ft 45.78 °N, 96.54 °W | Updated 8 minutes ago

Overcast
Overcast
28 °F
Feels Like 21 °F
N
7
Wind Variable Wind from SSE

Today
High -- | Low -- °F
--% Chance of Precip.
Yesterday
High -- | Low -- °F
Precip. -- in
8:05 AM 4:44 PM
Waning Crescent, 4% visible
Pressure 30.06 in
Visibility 5.0 miles
Clouds Overcast 1100 ft
Windchill 21 °F
Dew Point 27 °F
Humidity 93%
Rainfall 0.00 in
Snow Depth Not available.
UV 0 out of 12
Pollen .10 out of 12
Air Quality Not available.
Flu Activity Not available.
METAR KETH 200436Z AUTO 15006KT 5SM BR OVC011 M02/M03 A3006 RMK AO2

More Conditions Fewer Conditions

Pressure 30.06 in
Visibility 5.0 miles
Clouds Overcast 1100 ft
Windchill 21 °F
Dew Point 27 °F
Humidity 93%
Rainfall 0.00 in
Snow Depth Not available.
UV 0 out of 12
Pollen .10 out of 12
Air Quality Not available.
Flu Activity Not available.
METAR KETH 200436Z AUTO 15006KT 5SM BR OVC011 M02/M03 A3006 RMK AO2

More Conditions Fewer Conditions

10-Day Weather Forecast

Almanac

Astronomy

Dec. 19, 2014 Rise Set
Actual Time
Civil Twilight
Nautical Twilight
Astronomical Twilight
Moon
Length of Visible Light
Length of Day
Tomorrow will be .
, % of the Moon is Illuminated

Today's Extremes

State Highs State Lows

Community

WunderPhotos

Upload Photos

1,779,130 photos uploaded!

WunderBlogs® & News

Nearby

Air Quality

  Air Quality AQ Index Pollutant
Not available.

Snow Depth

Station Depth Elevation

Earthquake Activity

City Distance Mag. Time & Date
Minimum magnitude displayed is 2.5.

Coastal Water Temperatures

Place Temperature

Nearby Weather Stations